sensor_id;sensor_type;location;lat;lon;timestamp;temperature;humidity
51637;DHT22;37713;53.254;6.460;2023-03-23T00:01:28;10.20;99.90
51637;DHT22;37713;53.254;6.460;2023-03-23T00:03:57;10.20;99.90
51637;DHT22;37713;53.254;6.460;2023-03-23T00:06:25;10.10;99.90
51637;DHT22;37713;53.254;6.460;2023-03-23T00:08:53;10.10;99.90
51637;DHT22;37713;53.254;6.460;2023-03-23T00:11:30;10.20;99.90
51637;DHT22;37713;53.254;6.460;2023-03-23T00:13:59;10.10;99.90
51637;DHT22;37713;53.254;6.460;2023-03-23T00:16:31;10.10;99.90
51637;DHT22;37713;53.254;6.460;2023-03-23T00:19:05;10.20;99.90
51637;DHT22;37713;53.254;6.460;2023-03-23T00:21:34;10.10;99.90
51637;DHT22;37713;53.254;6.460;2023-03-23T00:26:27;10.20;99.90
51637;DHT22;37713;53.254;6.460;2023-03-23T00:28:55;10.30;99.90
51637;DHT22;37713;53.254;6.460;2023-03-23T00:31:21;10.20;99.90
51637;DHT22;37713;53.254;6.460;2023-03-23T00:33:46;10.20;99.90
51637;DHT22;37713;53.254;6.460;2023-03-23T00:36:13;10.30;99.90
51637;DHT22;37713;53.254;6.460;2023-03-23T00:38:40;10.20;99.90
51637;DHT22;37713;53.254;6.460;2023-03-23T00:41:09;10.30;99.90
51637;DHT22;37713;53.254;6.460;2023-03-23T00:43:37;10.20;99.90
51637;DHT22;37713;53.254;6.460;2023-03-23T00:46:03;10.30;99.90
51637;DHT22;37713;53.254;6.460;2023-03-23T00:48:34;10.20;99.90
51637;DHT22;37713;53.254;6.460;2023-03-23T00:51:01;10.30;99.90
51637;DHT22;37713;53.254;6.460;2023-03-23T00:53:32;10.30;99.90
51637;DHT22;37713;53.254;6.460;2023-03-23T00:55:58;10.30;99.90
51637;DHT22;37713;53.254;6.460;2023-03-23T00:58:24;10.30;99.90
51637;DHT22;37713;53.254;6.460;2023-03-23T01:00:50;10.30;99.90
51637;DHT22;37713;53.254;6.460;2023-03-23T01:03:16;10.40;99.90
51637;DHT22;37713;53.254;6.460;2023-03-23T01:05:44;10.30;99.90
51637;DHT22;37713;53.254;6.460;2023-03-23T01:08:13;10.40;99.90
51637;DHT22;37713;53.254;6.460;2023-03-23T01:10:39;10.60;99.90
51637;DHT22;37713;53.254;6.460;2023-03-23T01:13:06;10.50;99.90
51637;DHT22;37713;53.254;6.460;2023-03-23T01:15:33;10.50;99.90
51637;DHT22;37713;53.254;6.460;2023-03-23T01:17:59;10.50;99.90
51637;DHT22;37713;53.254;6.460;2023-03-23T01:20:25;10.50;99.90
51637;DHT22;37713;53.254;6.460;2023-03-23T01:22:59;10.50;99.90
51637;DHT22;37713;53.254;6.460;2023-03-23T01:25:34;10.60;99.90
51637;DHT22;37713;53.254;6.460;2023-03-23T01:28:00;10.40;99.90
51637;DHT22;37713;53.254;6.460;2023-03-23T01:30:27;10.30;99.90
51637;DHT22;37713;53.254;6.460;2023-03-23T01:32:54;10.30;99.90
51637;DHT22;37713;53.254;6.460;2023-03-23T01:35:21;10.20;99.90
51637;DHT22;37713;53.254;6.460;2023-03-23T01:37:47;10.20;99.90
51637;DHT22;37713;53.254;6.460;2023-03-23T01:40:14;10.10;99.90
51637;DHT22;37713;53.254;6.460;2023-03-23T01:42:40;10.10;99.90
51637;DHT22;37713;53.254;6.460;2023-03-23T01:45:31;10.10;99.90
51637;DHT22;37713;53.254;6.460;2023-03-23T01:48:04;10.20;99.90
51637;DHT22;37713;53.254;6.460;2023-03-23T01:50:39;10.10;99.90
51637;DHT22;37713;53.254;6.460;2023-03-23T01:53:08;10.20;99.90
51637;DHT22;37713;53.254;6.460;2023-03-23T01:55:36;10.30;99.90
51637;DHT22;37713;53.254;6.460;2023-03-23T01:58:04;10.30;99.90
51637;DHT22;37713;53.254;6.460;2023-03-23T02:00:31;10.30;99.90
51637;DHT22;37713;53.254;6.460;2023-03-23T02:02:57;10.40;99.90
51637;DHT22;37713;53.254;6.460;2023-03-23T02:05:40;10.40;99.90
51637;DHT22;37713;53.254;6.460;2023-03-23T02:08:08;10.50;99.90
51637;DHT22;37713;53.254;6.460;2023-03-23T02:10:36;10.50;99.90
51637;DHT22;37713;53.254;6.460;2023-03-23T02:13:06;10.50;99.90
51637;DHT22;37713;53.254;6.460;2023-03-23T02:18:57;10.60;99.90
51637;DHT22;37713;53.254;6.460;2023-03-23T02:21:32;10.60;99.90
51637;DHT22;37713;53.254;6.460;2023-03-23T02:26:59;10.70;99.90
51637;DHT22;37713;53.254;6.460;2023-03-23T02:32:36;10.70;99.90
51637;DHT22;37713;53.254;6.460;2023-03-23T02:35:18;10.70;99.90
51637;DHT22;37713;53.254;6.460;2023-03-23T02:38:04;10.70;99.90
51637;DHT22;37713;53.254;6.460;2023-03-23T02:40:44;10.80;99.90
51637;DHT22;37713;53.254;6.460;2023-03-23T02:43:13;10.80;99.90
51637;DHT22;37713;53.254;6.460;2023-03-23T02:45:41;10.80;99.90
51637;DHT22;37713;53.254;6.460;2023-03-23T02:48:09;10.70;99.90
51637;DHT22;37713;53.254;6.460;2023-03-23T02:50:36;10.80;99.90
51637;DHT22;37713;53.254;6.460;2023-03-23T02:53:08;10.70;99.90
51637;DHT22;37713;53.254;6.460;2023-03-23T02:55:39;10.70;99.90
51637;DHT22;37713;53.254;6.460;2023-03-23T02:58:09;10.70;99.90
51637;DHT22;37713;53.254;6.460;2023-03-23T03:00:36;10.70;99.90
51637;DHT22;37713;53.254;6.460;2023-03-23T03:03:04;10.70;99.90
51637;DHT22;37713;53.254;6.460;2023-03-23T03:11:09;10.70;99.90
51637;DHT22;37713;53.254;6.460;2023-03-23T03:16:35;10.80;99.90
51637;DHT22;37713;53.254;6.460;2023-03-23T03:19:19;10.80;99.90
51637;DHT22;37713;53.254;6.460;2023-03-23T03:21:46;10.70;99.90
51637;DHT22;37713;53.254;6.460;2023-03-23T03:24:19;10.70;99.90
51637;DHT22;37713;53.254;6.460;2023-03-23T03:26:48;10.70;99.90
51637;DHT22;37713;53.254;6.460;2023-03-23T03:29:17;10.70;99.90
51637;DHT22;37713;53.254;6.460;2023-03-23T03:31:45;10.70;99.90
51637;DHT22;37713;53.254;6.460;2023-03-23T03:34:12;10.70;99.90
51637;DHT22;37713;53.254;6.460;2023-03-23T03:36:45;10.70;99.90
51637;DHT22;37713;53.254;6.460;2023-03-23T03:39:13;10.70;99.90
51637;DHT22;37713;53.254;6.460;2023-03-23T03:41:41;10.80;99.90
51637;DHT22;37713;53.254;6.460;2023-03-23T03:44:07;10.70;99.90
51637;DHT22;37713;53.254;6.460;2023-03-23T03:46:34;10.70;99.90
51637;DHT22;37713;53.254;6.460;2023-03-23T03:49:02;10.70;99.90
51637;DHT22;37713;53.254;6.460;2023-03-23T03:51:29;10.70;99.90
51637;DHT22;37713;53.254;6.460;2023-03-23T03:53:56;10.70;99.90
51637;DHT22;37713;53.254;6.460;2023-03-23T03:56:23;10.70;99.90
51637;DHT22;37713;53.254;6.460;2023-03-23T03:58:49;10.70;99.90
51637;DHT22;37713;53.254;6.460;2023-03-23T04:01:20;10.70;99.90
51637;DHT22;37713;53.254;6.460;2023-03-23T04:03:48;10.70;99.90
51637;DHT22;37713;53.254;6.460;2023-03-23T04:06:15;10.60;99.90
51637;DHT22;37713;53.254;6.460;2023-03-23T04:08:41;10.60;99.90
51637;DHT22;37713;53.254;6.460;2023-03-23T04:11:12;10.60;99.90
51637;DHT22;37713;53.254;6.460;2023-03-23T04:13:39;10.60;99.90
51637;DHT22;37713;53.254;6.460;2023-03-23T04:16:06;10.50;99.90
51637;DHT22;37713;53.254;6.460;2023-03-23T04:18:33;10.50;99.90
51637;DHT22;37713;53.254;6.460;2023-03-23T04:21:00;10.50;99.90
51637;DHT22;37713;53.254;6.460;2023-03-23T04:23:27;10.50;99.90
51637;DHT22;37713;53.254;6.460;2023-03-23T04:25:56;10.50;99.90
51637;DHT22;37713;53.254;6.460;2023-03-23T04:28:24;10.50;99.90
51637;DHT22;37713;53.254;6.460;2023-03-23T04:30:52;10.40;99.90
51637;DHT22;37713;53.254;6.460;2023-03-23T04:33:22;10.40;99.90
51637;DHT22;37713;53.254;6.460;2023-03-23T04:35:50;10.30;99.90
51637;DHT22;37713;53.254;6.460;2023-03-23T04:38:17;10.40;99.90
51637;DHT22;37713;53.254;6.460;2023-03-23T04:40:47;10.30;99.90
51637;DHT22;37713;53.254;6.460;2023-03-23T04:43:13;10.30;99.90
51637;DHT22;37713;53.254;6.460;2023-03-23T04:45:40;10.30;99.90
51637;DHT22;37713;53.254;6.460;2023-03-23T04:48:11;10.20;99.90
51637;DHT22;37713;53.254;6.460;2023-03-23T04:50:38;10.10;99.90
51637;DHT22;37713;53.254;6.460;2023-03-23T04:53:04;10.10;99.90
51637;DHT22;37713;53.254;6.460;2023-03-23T04:55:35;10.00;99.90
51637;DHT22;37713;53.254;6.460;2023-03-23T04:58:02;9.90;99.90
51637;DHT22;37713;53.254;6.460;2023-03-23T05:00:29;10.00;99.90
51637;DHT22;37713;53.254;6.460;2023-03-23T05:02:55;9.90;99.90
51637;DHT22;37713;53.254;6.460;2023-03-23T05:05:22;10.00;99.90
51637;DHT22;37713;53.254;6.460;2023-03-23T05:07:49;10.00;99.90
51637;DHT22;37713;53.254;6.460;2023-03-23T05:10:15;10.00;99.90
51637;DHT22;37713;53.254;6.460;2023-03-23T05:12:42;10.00;99.90
51637;DHT22;37713;53.254;6.460;2023-03-23T05:15:10;10.00;99.90
51637;DHT22;37713;53.254;6.460;2023-03-23T05:17:36;9.90;99.90
51637;DHT22;37713;53.254;6.460;2023-03-23T05:20:04;9.90;99.90
51637;DHT22;37713;53.254;6.460;2023-03-23T05:22:32;9.90;99.90
51637;DHT22;37713;53.254;6.460;2023-03-23T05:24:59;9.90;99.90
51637;DHT22;37713;53.254;6.460;2023-03-23T05:27:28;9.90;99.90
51637;DHT22;37713;53.254;6.460;2023-03-23T05:29:56;9.90;99.90
51637;DHT22;37713;53.254;6.460;2023-03-23T05:32:25;9.90;99.90
51637;DHT22;37713;53.254;6.460;2023-03-23T05:35:00;9.90;99.90
51637;DHT22;37713;53.254;6.460;2023-03-23T05:37:27;10.00;99.90
51637;DHT22;37713;53.254;6.460;2023-03-23T05:39:58;10.00;99.90
51637;DHT22;37713;53.254;6.460;2023-03-23T05:42:31;10.10;99.90
51637;DHT22;37713;53.254;6.460;2023-03-23T05:44:57;10.00;99.90
51637;DHT22;37713;53.254;6.460;2023-03-23T05:47:23;10.10;99.90
51637;DHT22;37713;53.254;6.460;2023-03-23T05:49:51;10.00;99.90
51637;DHT22;37713;53.254;6.460;2023-03-23T05:52:18;10.00;99.90
51637;DHT22;37713;53.254;6.460;2023-03-23T05:54:44;10.00;99.90
51637;DHT22;37713;53.254;6.460;2023-03-23T05:57:10;9.90;99.90
51637;DHT22;37713;53.254;6.460;2023-03-23T05:59:36;9.90;99.90
51637;DHT22;37713;53.254;6.460;2023-03-23T06:02:03;9.90;99.90
51637;DHT22;37713;53.254;6.460;2023-03-23T06:04:30;9.90;99.90
51637;DHT22;37713;53.254;6.460;2023-03-23T06:07:00;9.90;99.90
51637;DHT22;37713;53.254;6.460;2023-03-23T06:09:27;9.90;99.90
51637;DHT22;37713;53.254;6.460;2023-03-23T06:11:54;10.00;99.90
51637;DHT22;37713;53.254;6.460;2023-03-23T06:14:20;9.90;99.90
51637;DHT22;37713;53.254;6.460;2023-03-23T06:16:46;10.00;99.90
51637;DHT22;37713;53.254;6.460;2023-03-23T06:19:12;10.00;99.90
51637;DHT22;37713;53.254;6.460;2023-03-23T06:21:38;10.00;99.90
51637;DHT22;37713;53.254;6.460;2023-03-23T06:24:04;10.00;99.90
51637;DHT22;37713;53.254;6.460;2023-03-23T06:26:33;10.00;99.90
51637;DHT22;37713;53.254;6.460;2023-03-23T06:29:00;10.10;99.90
51637;DHT22;37713;53.254;6.460;2023-03-23T06:31:26;10.00;99.90
51637;DHT22;37713;53.254;6.460;2023-03-23T06:33:53;10.00;99.90
51637;DHT22;37713;53.254;6.460;2023-03-23T06:36:19;10.00;99.90
51637;DHT22;37713;53.254;6.460;2023-03-23T06:38:45;9.90;99.90
51637;DHT22;37713;53.254;6.460;2023-03-23T06:41:11;9.90;99.90
51637;DHT22;37713;53.254;6.460;2023-03-23T06:43:37;9.80;99.90
51637;DHT22;37713;53.254;6.460;2023-03-23T06:46:05;9.80;99.90
51637;DHT22;37713;53.254;6.460;2023-03-23T06:48:32;9.70;99.90
51637;DHT22;37713;53.254;6.460;2023-03-23T06:50:58;9.70;99.90
51637;DHT22;37713;53.254;6.460;2023-03-23T06:53:24;9.60;99.90
51637;DHT22;37713;53.254;6.460;2023-03-23T06:55:50;9.50;99.90
51637;DHT22;37713;53.254;6.460;2023-03-23T06:58:16;9.50;99.90
51637;DHT22;37713;53.254;6.460;2023-03-23T07:00:42;9.40;99.90
51637;DHT22;37713;53.254;6.460;2023-03-23T07:03:08;9.40;99.90
51637;DHT22;37713;53.254;6.460;2023-03-23T07:05:34;9.40;99.90
51637;DHT22;37713;53.254;6.460;2023-03-23T07:08:04;9.40;99.90
51637;DHT22;37713;53.254;6.460;2023-03-23T07:10:30;9.40;99.90
51637;DHT22;37713;53.254;6.460;2023-03-23T07:12:57;9.40;99.90
51637;DHT22;37713;53.254;6.460;2023-03-23T07:15:23;9.40;99.90
51637;DHT22;37713;53.254;6.460;2023-03-23T07:17:49;9.50;99.90
51637;DHT22;37713;53.254;6.460;2023-03-23T07:20:15;9.50;99.90
51637;DHT22;37713;53.254;6.460;2023-03-23T07:22:41;9.50;99.90
51637;DHT22;37713;53.254;6.460;2023-03-23T07:25:07;9.50;99.90
51637;DHT22;37713;53.254;6.460;2023-03-23T07:27:33;9.60;99.90
51637;DHT22;37713;53.254;6.460;2023-03-23T07:29:59;9.80;99.90
51637;DHT22;37713;53.254;6.460;2023-03-23T07:32:25;9.80;99.90
51637;DHT22;37713;53.254;6.460;2023-03-23T07:34:50;10.00;99.90
51637;DHT22;37713;53.254;6.460;2023-03-23T07:37:17;10.10;99.90
51637;DHT22;37713;53.254;6.460;2023-03-23T07:39:43;10.20;99.90
51637;DHT22;37713;53.254;6.460;2023-03-23T07:42:09;10.20;99.90
51637;DHT22;37713;53.254;6.460;2023-03-23T07:44:35;10.30;99.90
51637;DHT22;37713;53.254;6.460;2023-03-23T07:47:02;10.40;99.90
51637;DHT22;37713;53.254;6.460;2023-03-23T07:49:27;10.40;99.90
51637;DHT22;37713;53.254;6.460;2023-03-23T07:51:53;10.40;99.90
51637;DHT22;37713;53.254;6.460;2023-03-23T07:54:19;10.40;99.90
51637;DHT22;37713;53.254;6.460;2023-03-23T07:56:45;10.50;99.90
51637;DHT22;37713;53.254;6.460;2023-03-23T07:59:11;10.50;99.90
51637;DHT22;37713;53.254;6.460;2023-03-23T08:01:38;10.60;99.90
51637;DHT22;37713;53.254;6.460;2023-03-23T08:04:05;10.70;99.90
51637;DHT22;37713;53.254;6.460;2023-03-23T08:06:34;10.70;99.90
51637;DHT22;37713;53.254;6.460;2023-03-23T08:09:01;10.70;99.90
51637;DHT22;37713;53.254;6.460;2023-03-23T08:11:29;10.70;99.90
51637;DHT22;37713;53.254;6.460;2023-03-23T08:13:54;10.70;99.90
51637;DHT22;37713;53.254;6.460;2023-03-23T08:16:21;10.80;99.90
51637;DHT22;37713;53.254;6.460;2023-03-23T08:18:47;10.80;99.90
51637;DHT22;37713;53.254;6.460;2023-03-23T08:21:13;10.90;99.90
51637;DHT22;37713;53.254;6.460;2023-03-23T08:23:39;10.90;99.90
51637;DHT22;37713;53.254;6.460;2023-03-23T08:26:06;11.00;99.90
51637;DHT22;37713;53.254;6.460;2023-03-23T08:28:36;11.10;99.90
51637;DHT22;37713;53.254;6.460;2023-03-23T08:31:07;11.10;99.90
51637;DHT22;37713;53.254;6.460;2023-03-23T08:33:34;11.10;99.90
51637;DHT22;37713;53.254;6.460;2023-03-23T08:36:00;11.10;99.90
51637;DHT22;37713;53.254;6.460;2023-03-23T08:38:27;11.10;99.90
51637;DHT22;37713;53.254;6.460;2023-03-23T08:40:58;11.10;99.90
51637;DHT22;37713;53.254;6.460;2023-03-23T08:43:25;11.20;99.90
51637;DHT22;37713;53.254;6.460;2023-03-23T08:45:51;11.30;99.90
51637;DHT22;37713;53.254;6.460;2023-03-23T08:48:17;11.40;99.90
51637;DHT22;37713;53.254;6.460;2023-03-23T08:50:43;11.80;99.90
51637;DHT22;37713;53.254;6.460;2023-03-23T08:53:09;12.10;99.90
51637;DHT22;37713;53.254;6.460;2023-03-23T08:55:35;12.30;99.90
51637;DHT22;37713;53.254;6.460;2023-03-23T08:58:01;12.40;99.90
51637;DHT22;37713;53.254;6.460;2023-03-23T09:00:29;12.70;99.90
51637;DHT22;37713;53.254;6.460;2023-03-23T09:02:54;13.00;99.90
51637;DHT22;37713;53.254;6.460;2023-03-23T09:05:24;13.00;99.90
51637;DHT22;37713;53.254;6.460;2023-03-23T09:07:52;12.80;99.90
51637;DHT22;37713;53.254;6.460;2023-03-23T09:10:19;12.80;99.90
51637;DHT22;37713;53.254;6.460;2023-03-23T09:12:46;12.50;99.90
51637;DHT22;37713;53.254;6.460;2023-03-23T09:15:15;12.60;99.90
51637;DHT22;37713;53.254;6.460;2023-03-23T09:17:43;12.60;99.90
51637;DHT22;37713;53.254;6.460;2023-03-23T09:20:11;12.60;99.90
51637;DHT22;37713;53.254;6.460;2023-03-23T09:22:45;12.60;99.90
51637;DHT22;37713;53.254;6.460;2023-03-23T09:25:14;12.50;99.90
51637;DHT22;37713;53.254;6.460;2023-03-23T09:27:42;12.50;99.90
51637;DHT22;37713;53.254;6.460;2023-03-23T09:30:11;12.50;99.90
51637;DHT22;37713;53.254;6.460;2023-03-23T09:32:38;12.60;99.90
51637;DHT22;37713;53.254;6.460;2023-03-23T09:35:06;12.60;99.90
51637;DHT22;37713;53.254;6.460;2023-03-23T09:37:34;12.70;99.90
51637;DHT22;37713;53.254;6.460;2023-03-23T09:40:03;12.80;99.90
51637;DHT22;37713;53.254;6.460;2023-03-23T09:42:56;12.90;99.90
51637;DHT22;37713;53.254;6.460;2023-03-23T09:45:43;13.00;99.90
51637;DHT22;37713;53.254;6.460;2023-03-23T09:51:02;12.60;99.90
51637;DHT22;37713;53.254;6.460;2023-03-23T09:53:36;12.30;99.90
51637;DHT22;37713;53.254;6.460;2023-03-23T09:56:10;12.10;99.90
51637;DHT22;37713;53.254;6.460;2023-03-23T09:58:55;11.90;99.90
51637;DHT22;37713;53.254;6.460;2023-03-23T10:01:45;11.80;99.90
51637;DHT22;37713;53.254;6.460;2023-03-23T10:04:32;11.90;99.90
51637;DHT22;37713;53.254;6.460;2023-03-23T10:07:03;11.90;99.90
51637;DHT22;37713;53.254;6.460;2023-03-23T10:09:31;12.00;99.90
51637;DHT22;37713;53.254;6.460;2023-03-23T10:12:11;12.10;99.90
51637;DHT22;37713;53.254;6.460;2023-03-23T10:17:31;12.20;99.90
51637;DHT22;37713;53.254;6.460;2023-03-23T10:20:21;12.20;99.90
51637;DHT22;37713;53.254;6.460;2023-03-23T10:25:37;12.40;99.90
51637;DHT22;37713;53.254;6.460;2023-03-23T10:28:11;12.40;99.90
51637;DHT22;37713;53.254;6.460;2023-03-23T10:30:53;12.40;99.90
51637;DHT22;37713;53.254;6.460;2023-03-23T10:38:24;12.40;99.90
51637;DHT22;37713;53.254;6.460;2023-03-23T10:41:11;12.30;99.90
51637;DHT22;37713;53.254;6.460;2023-03-23T10:43:38;12.50;99.90
51637;DHT22;37713;53.254;6.460;2023-03-23T10:48:45;12.70;99.90
51637;DHT22;37713;53.254;6.460;2023-03-23T10:51:17;12.80;99.90
51637;DHT22;37713;53.254;6.460;2023-03-23T10:53:49;12.70;99.90
51637;DHT22;37713;53.254;6.460;2023-03-23T10:56:26;12.80;99.90
51637;DHT22;37713;53.254;6.460;2023-03-23T10:58:53;12.80;99.90
51637;DHT22;37713;53.254;6.460;2023-03-23T11:01:32;12.70;99.90
51637;DHT22;37713;53.254;6.460;2023-03-23T11:03:58;12.60;99.90
51637;DHT22;37713;53.254;6.460;2023-03-23T11:06:30;12.70;99.90
51637;DHT22;37713;53.254;6.460;2023-03-23T11:09:03;12.90;99.90
51637;DHT22;37713;53.254;6.460;2023-03-23T11:11:39;12.90;99.90
51637;DHT22;37713;53.254;6.460;2023-03-23T11:16:46;13.20;99.90
51637;DHT22;37713;53.254;6.460;2023-03-23T11:19:20;13.30;99.90
51637;DHT22;37713;53.254;6.460;2023-03-23T11:21:52;13.40;99.90
51637;DHT22;37713;53.254;6.460;2023-03-23T11:24:22;13.30;99.90
51637;DHT22;37713;53.254;6.460;2023-03-23T11:26:48;13.30;99.90
51637;DHT22;37713;53.254;6.460;2023-03-23T11:29:19;13.30;99.90
51637;DHT22;37713;53.254;6.460;2023-03-23T11:32:05;13.30;99.90
51637;DHT22;37713;53.254;6.460;2023-03-23T11:34:36;13.30;99.90
51637;DHT22;37713;53.254;6.460;2023-03-23T11:37:29;13.40;99.90
51637;DHT22;37713;53.254;6.460;2023-03-23T11:39:56;13.40;99.90
51637;DHT22;37713;53.254;6.460;2023-03-23T11:45:19;13.60;99.90
51637;DHT22;37713;53.254;6.460;2023-03-23T11:51:22;13.80;99.90
51637;DHT22;37713;53.254;6.460;2023-03-23T11:56:42;14.00;99.90
51637;DHT22;37713;53.254;6.460;2023-03-23T11:59:17;13.70;99.90
51637;DHT22;37713;53.254;6.460;2023-03-23T12:01:51;13.50;99.90
51637;DHT22;37713;53.254;6.460;2023-03-23T12:09:34;13.40;99.90
51637;DHT22;37713;53.254;6.460;2023-03-23T12:15:03;13.40;99.90
51637;DHT22;37713;53.254;6.460;2023-03-23T12:20:55;13.30;99.90
51637;DHT22;37713;53.254;6.460;2023-03-23T12:23:37;13.30;99.90
51637;DHT22;37713;53.254;6.460;2023-03-23T12:31:40;13.50;99.90
51637;DHT22;37713;53.254;6.460;2023-03-23T12:34:32;13.40;99.90
51637;DHT22;37713;53.254;6.460;2023-03-23T12:43:28;13.40;99.90
51637;DHT22;37713;53.254;6.460;2023-03-23T12:49:21;13.30;99.90
51637;DHT22;37713;53.254;6.460;2023-03-23T12:56:41;13.30;99.90
51637;DHT22;37713;53.254;6.460;2023-03-23T12:59:23;13.20;99.90
51637;DHT22;37713;53.254;6.460;2023-03-23T13:02:13;13.20;99.90
51637;DHT22;37713;53.254;6.460;2023-03-23T13:04:44;13.20;99.90
51637;DHT22;37713;53.254;6.460;2023-03-23T13:07:16;13.20;99.90
51637;DHT22;37713;53.254;6.460;2023-03-23T13:12:41;13.40;99.90
51637;DHT22;37713;53.254;6.460;2023-03-23T13:18:48;13.60;99.90
51637;DHT22;37713;53.254;6.460;2023-03-23T13:23:42;13.60;99.90
51637;DHT22;37713;53.254;6.460;2023-03-23T13:26:13;13.70;99.90
51637;DHT22;37713;53.254;6.460;2023-03-23T13:31:17;13.90;99.90
51637;DHT22;37713;53.254;6.460;2023-03-23T13:33:52;13.80;99.90
51637;DHT22;37713;53.254;6.460;2023-03-23T13:38:58;13.50;99.90
51637;DHT22;37713;53.254;6.460;2023-03-23T13:41:25;13.30;99.90
51637;DHT22;37713;53.254;6.460;2023-03-23T13:43:52;13.30;99.90
51637;DHT22;37713;53.254;6.460;2023-03-23T13:56:59;13.10;99.90
51637;DHT22;37713;53.254;6.460;2023-03-23T14:01:56;13.30;99.90
51637;DHT22;37713;53.254;6.460;2023-03-23T14:04:30;13.30;99.90
51637;DHT22;37713;53.254;6.460;2023-03-23T14:07:09;13.50;99.90
51637;DHT22;37713;53.254;6.460;2023-03-23T14:09:41;13.50;99.90
51637;DHT22;37713;53.254;6.460;2023-03-23T14:12:27;13.60;99.90
51637;DHT22;37713;53.254;6.460;2023-03-23T14:15:00;13.40;99.90
51637;DHT22;37713;53.254;6.460;2023-03-23T14:17:33;13.50;99.90
51637;DHT22;37713;53.254;6.460;2023-03-23T14:20:00;13.60;99.90
51637;DHT22;37713;53.254;6.460;2023-03-23T14:22:33;13.80;99.90
51637;DHT22;37713;53.254;6.460;2023-03-23T14:27:34;14.00;99.90
51637;DHT22;37713;53.254;6.460;2023-03-23T14:30:04;13.90;99.90
51637;DHT22;37713;53.254;6.460;2023-03-23T14:32:31;13.90;99.90
51637;DHT22;37713;53.254;6.460;2023-03-23T14:34:59;13.80;99.90
51637;DHT22;37713;53.254;6.460;2023-03-23T14:37:25;13.80;99.90
51637;DHT22;37713;53.254;6.460;2023-03-23T14:39:55;13.80;99.90
51637;DHT22;37713;53.254;6.460;2023-03-23T14:42:33;13.80;99.90
51637;DHT22;37713;53.254;6.460;2023-03-23T14:45:01;13.90;99.90
51637;DHT22;37713;53.254;6.460;2023-03-23T14:47:31;13.90;99.90
51637;DHT22;37713;53.254;6.460;2023-03-23T14:50:00;13.90;99.90
51637;DHT22;37713;53.254;6.460;2023-03-23T14:52:33;13.90;99.90
51637;DHT22;37713;53.254;6.460;2023-03-23T14:55:17;13.90;99.90
51637;DHT22;37713;53.254;6.460;2023-03-23T14:57:44;13.80;99.90
51637;DHT22;37713;53.254;6.460;2023-03-23T15:00:23;13.80;99.90
51637;DHT22;37713;53.254;6.460;2023-03-23T15:02:56;13.90;99.90
51637;DHT22;37713;53.254;6.460;2023-03-23T15:05:32;13.80;99.90
51637;DHT22;37713;53.254;6.460;2023-03-23T15:08:03;13.80;99.90
51637;DHT22;37713;53.254;6.460;2023-03-23T15:10:31;13.80;99.90
51637;DHT22;37713;53.254;6.460;2023-03-23T15:12:57;13.80;99.90
51637;DHT22;37713;53.254;6.460;2023-03-23T15:17:56;13.70;99.90
51637;DHT22;37713;53.254;6.460;2023-03-23T15:20:58;13.70;99.90
51637;DHT22;37713;53.254;6.460;2023-03-23T15:23:25;13.70;99.90
51637;DHT22;37713;53.254;6.460;2023-03-23T15:25:54;13.70;99.90
51637;DHT22;37713;53.254;6.460;2023-03-23T15:28:27;13.70;99.90
51637;DHT22;37713;53.254;6.460;2023-03-23T15:30:57;13.70;99.90
51637;DHT22;37713;53.254;6.460;2023-03-23T15:33:25;13.70;99.90
51637;DHT22;37713;53.254;6.460;2023-03-23T15:35:56;13.70;99.90
51637;DHT22;37713;53.254;6.460;2023-03-23T15:38:29;13.70;99.90
51637;DHT22;37713;53.254;6.460;2023-03-23T15:41:04;13.60;99.90
51637;DHT22;37713;53.254;6.460;2023-03-23T15:43:48;13.60;99.90
51637;DHT22;37713;53.254;6.460;2023-03-23T15:49:04;13.60;99.90
51637;DHT22;37713;53.254;6.460;2023-03-23T15:51:32;13.60;99.90
51637;DHT22;37713;53.254;6.460;2023-03-23T15:53:58;13.50;99.90
51637;DHT22;37713;53.254;6.460;2023-03-23T15:56:25;13.50;99.90
51637;DHT22;37713;53.254;6.460;2023-03-23T15:58:52;13.50;99.90
51637;DHT22;37713;53.254;6.460;2023-03-23T16:01:21;13.50;99.90
51637;DHT22;37713;53.254;6.460;2023-03-23T16:06:19;13.30;99.90
51637;DHT22;37713;53.254;6.460;2023-03-23T16:08:45;13.30;99.90
51637;DHT22;37713;53.254;6.460;2023-03-23T16:11:16;13.30;99.90
51637;DHT22;37713;53.254;6.460;2023-03-23T16:13:42;13.30;99.90
51637;DHT22;37713;53.254;6.460;2023-03-23T16:16:17;13.30;99.90
51637;DHT22;37713;53.254;6.460;2023-03-23T16:18:44;13.20;99.90
51637;DHT22;37713;53.254;6.460;2023-03-23T16:21:09;13.00;99.90
51637;DHT22;37713;53.254;6.460;2023-03-23T16:23:35;12.90;99.90
51637;DHT22;37713;53.254;6.460;2023-03-23T16:26:02;12.80;99.90
51637;DHT22;37713;53.254;6.460;2023-03-23T16:28:28;12.80;99.90
51637;DHT22;37713;53.254;6.460;2023-03-23T16:30:54;12.80;99.90
51637;DHT22;37713;53.254;6.460;2023-03-23T16:33:20;12.70;99.90
51637;DHT22;37713;53.254;6.460;2023-03-23T16:35:47;12.70;99.90
51637;DHT22;37713;53.254;6.460;2023-03-23T16:38:14;12.70;99.90
51637;DHT22;37713;53.254;6.460;2023-03-23T16:40:44;12.70;99.90
51637;DHT22;37713;53.254;6.460;2023-03-23T16:43:10;12.60;99.90
51637;DHT22;37713;53.254;6.460;2023-03-23T16:45:39;12.60;99.90
51637;DHT22;37713;53.254;6.460;2023-03-23T16:48:06;12.60;99.90
51637;DHT22;37713;53.254;6.460;2023-03-23T16:50:33;12.50;99.90
51637;DHT22;37713;53.254;6.460;2023-03-23T16:52:59;12.40;99.90
51637;DHT22;37713;53.254;6.460;2023-03-23T16:55:26;12.30;99.90
51637;DHT22;37713;53.254;6.460;2023-03-23T16:57:54;12.30;99.90
51637;DHT22;37713;53.254;6.460;2023-03-23T17:00:20;12.20;99.90
51637;DHT22;37713;53.254;6.460;2023-03-23T17:02:51;12.20;99.90
51637;DHT22;37713;53.254;6.460;2023-03-23T17:05:21;12.10;99.90
51637;DHT22;37713;53.254;6.460;2023-03-23T17:07:47;12.10;99.90
51637;DHT22;37713;53.254;6.460;2023-03-23T17:10:14;12.00;99.90
51637;DHT22;37713;53.254;6.460;2023-03-23T17:12:40;12.00;99.90
51637;DHT22;37713;53.254;6.460;2023-03-23T17:15:07;12.00;99.90
51637;DHT22;37713;53.254;6.460;2023-03-23T17:17:33;11.90;99.90
51637;DHT22;37713;53.254;6.460;2023-03-23T17:19:59;11.90;99.90
51637;DHT22;37713;53.254;6.460;2023-03-23T17:22:26;11.90;99.90
51637;DHT22;37713;53.254;6.460;2023-03-23T17:24:52;11.80;99.90
51637;DHT22;37713;53.254;6.460;2023-03-23T17:27:19;11.70;99.90
51637;DHT22;37713;53.254;6.460;2023-03-23T17:29:46;11.70;99.90
51637;DHT22;37713;53.254;6.460;2023-03-23T17:32:12;11.70;99.90
51637;DHT22;37713;53.254;6.460;2023-03-23T17:34:38;11.60;99.90
51637;DHT22;37713;53.254;6.460;2023-03-23T17:37:05;11.50;99.90
51637;DHT22;37713;53.254;6.460;2023-03-23T17:39:31;11.50;99.90
51637;DHT22;37713;53.254;6.460;2023-03-23T17:41:58;11.50;99.90
51637;DHT22;37713;53.254;6.460;2023-03-23T17:44:25;11.40;99.90